Time;durP1;ratioP1;P1;durP2;ratioP2;P2;SDS_P1;SDS_P2;PMS_P1;PMS_P2;Temp;Humidity;BMP_temperature;BMP_pressure;BME280_temperature;BME280_humidity;BME280_pressure;Samples;Min_cycle;Max_cycle;Signal;HPM_P1;HPM_P2
2022/09/13 00:00:59;;;;;;;4.82;3.17;;;;;;;15.04;59.21;95298.81;5025678;28;20033;-79
2022/09/13 00:03:25;;;;;;;4.65;3.40;;;;;;;15.03;59.39;95290.91;5025096;28;20032;-79
2022/09/13 00:05:50;;;;;;;3.95;3.55;;;;;;;15.08;59.54;95293.81;5009462;28;20026;-79
2022/09/13 00:08:16;;;;;;;6.90;3.75;;;;;;;15.11;59.51;95288.00;5007832;28;20100;-79
2022/09/13 00:10:42;;;;;;;6.30;3.65;;;;;;;15.08;59.77;95283.88;5027808;28;20022;-79
2022/09/13 00:13:08;;;;;;;5.10;3.13;;;;;;;15.13;59.74;95285.94;5024223;28;20100;-79
2022/09/13 00:15:34;;;;;;;4.78;3.40;;;;;;;15.17;59.76;95284.47;5026061;28;20112;-79
2022/09/13 00:17:59;;;;;;;4.15;3.40;;;;;;;15.20;59.79;95275.94;5024173;28;20100;-79
2022/09/13 00:20:25;;;;;;;7.50;3.58;;;;;;;15.26;59.74;95271.59;5024961;28;20064;-79
2022/09/13 00:22:50;;;;;;;5.90;3.60;;;;;;;15.24;59.70;95276.34;5025372;28;20025;-78
2022/09/13 00:25:16;;;;;;;4.57;3.30;;;;;;;15.18;59.99;95263.69;5024498;28;20025;-79
2022/09/13 00:27:43;;;;;;;6.38;3.40;;;;;;;15.15;60.21;95261.41;5026011;28;20102;-78
2022/09/13 00:30:09;;;;;;;6.05;3.60;;;;;;;15.18;60.27;95261.00;5025330;28;20021;-78
2022/09/13 00:32:35;;;;;;;4.35;3.10;;;;;;;15.19;60.51;95263.47;5027204;28;20033;-79
2022/09/13 00:35:05;;;;;;;3.85;3.08;;;;;;;15.24;60.59;95259.31;5007801;28;20072;-80
2022/09/13 00:37:32;;;;;;;4.80;3.20;;;;;;;15.29;60.31;95262.22;5025251;28;20571;-80
2022/09/13 00:39:57;;;;;;;5.20;3.90;;;;;;;15.36;59.53;95257.63;5025034;28;20460;-79
2022/09/13 00:42:27;;;;;;;5.45;3.70;;;;;;;15.35;59.18;95265.97;5024479;28;20025;-79
2022/09/13 00:44:56;;;;;;;4.15;3.40;;;;;;;15.28;59.39;95258.66;5025517;28;20029;-79
2022/09/13 00:47:38;;;;;;;5.80;3.85;;;;;;;15.26;59.62;95260.78;4991450;28;20029;-79
2022/09/13 00:50:12;;;;;;;5.13;3.60;;;;;;;15.28;60.20;95263.25;5025349;28;20428;-79
2022/09/13 00:52:38;;;;;;;6.82;3.53;;;;;;;15.27;60.46;95264.28;5025961;28;20030;-80
2022/09/13 00:55:07;;;;;;;4.70;3.50;;;;;;;15.31;60.53;95265.53;5007864;28;20103;-80
2022/09/13 00:57:32;;;;;;;5.68;3.40;;;;;;;15.32;60.55;95267.19;5025137;28;20507;-79
2022/09/13 01:00:12;;;;;;;4.93;3.27;;;;;;;15.30;60.59;95258.47;5007411;28;20025;-79
2022/09/13 01:02:54;;;;;;;5.85;3.40;;;;;;;15.38;60.47;95258.22;5025361;28;20052;-79
2022/09/13 01:05:21;;;;;;;5.63;3.28;;;;;;;15.44;60.62;95251.16;5007125;28;20025;-79
2022/09/13 01:07:46;;;;;;;4.00;3.38;;;;;;;15.51;60.61;95261.97;5008483;28;20585;-79
2022/09/13 01:10:12;;;;;;;5.57;3.50;;;;;;;15.56;60.53;95262.97;5024290;28;20025;-79
2022/09/13 01:12:58;;;;;;;4.65;3.80;;;;;;;15.55;60.93;95257.78;5024120;28;20018;-79
2022/09/13 01:15:24;;;;;;;4.75;3.20;;;;;;;15.56;61.21;95260.28;5008154;28;20436;-79
2022/09/13 01:17:50;;;;;;;4.53;3.38;;;;;;;15.59;60.61;95263.59;5023211;28;20060;-79
2022/09/13 01:20:16;;;;;;;4.93;3.30;;;;;;;15.61;59.77;95253.38;4992134;28;20393;-78
2022/09/13 01:23:00;;;;;;;10.23;3.42;;;;;;;15.59;59.46;95253.59;5023478;28;20040;-79
2022/09/13 01:25:40;;;;;;;5.97;4.13;;;;;;;15.49;59.63;95247.81;5025142;28;20029;-79
2022/09/13 01:28:27;;;;;;;4.15;3.40;;;;;;;15.50;59.65;95246.78;5025026;28;20025;-79
2022/09/13 01:31:27;;;;;;;4.32;3.45;;;;;;;15.47;60.04;95242.63;5024421;28;20029;-79
2022/09/13 01:34:15;;;;;;;4.38;3.97;;;;;;;15.52;59.88;95255.50;5010968;28;20052;-78
2022/09/13 01:37:18;;;;;;;6.60;3.75;;;;;;;15.47;59.46;95249.91;5024633;28;20086;-78
2022/09/13 01:39:54;;;;;;;4.50;3.58;;;;;;;15.49;59.03;95245.13;5009532;28;20571;-78
2022/09/13 01:42:25;;;;;;;6.22;3.70;;;;;;;15.44;59.24;95245.75;5025262;28;20390;-79
2022/09/13 01:45:10;;;;;;;4.63;3.78;;;;;;;15.39;59.25;95251.81;5025190;28;20474;-78
2022/09/13 01:47:38;;;;;;;5.22;3.80;;;;;;;15.39;59.30;95242.88;5022776;28;20079;-78
2022/09/13 01:50:25;;;;;;;5.22;3.67;;;;;;;15.36;59.49;95237.88;5024553;28;20021;-79
2022/09/13 01:53:01;;;;;;;9.90;3.95;;;;;;;15.35;59.42;95244.34;5024609;28;20057;-79
2022/09/13 01:55:35;;;;;;;5.07;4.10;;;;;;;15.31;59.71;95239.34;5024151;28;20483;-78
2022/09/13 01:58:15;;;;;;;4.50;3.85;;;;;;;15.21;59.88;95236.25;5025749;28;20497;-79
2022/09/13 02:00:44;;;;;;;6.43;4.03;;;;;;;15.12;60.30;95235.63;5007539;28;20224;-78
2022/09/13 02:03:17;;;;;;;6.10;3.75;;;;;;;15.10;60.29;95237.75;4992156;28;20124;-78
2022/09/13 02:06:22;;;;;;;5.55;4.20;;;;;;;15.09;60.76;95241.47;5022641;28;20266;-78
2022/09/13 02:08:55;;;;;;;5.15;3.60;;;;;;;15.04;60.96;95233.19;5005777;28;20500;-78
2022/09/13 02:11:21;;;;;;;5.45;4.25;;;;;;;15.08;60.95;95234.41;5006785;28;20104;-79
2022/09/13 02:13:52;;;;;;;6.72;4.20;;;;;;;15.05;60.81;95234.84;5013007;28;20439;-79
2022/09/13 02:16:40;;;;;;;7.80;3.97;;;;;;;15.05;60.59;95240.22;5024381;28;20416;-79
2022/09/13 02:19:12;;;;;;;5.82;4.00;;;;;;;15.08;60.43;95234.41;5023426;28;20049;-78
2022/09/13 02:21:39;;;;;;;4.88;3.55;;;;;;;15.07;60.80;95228.16;5007658;28;20095;-78
2022/09/13 02:24:10;;;;;;;7.15;4.15;;;;;;;15.10;60.52;95226.09;5007566;28;20033;-79
2022/09/13 02:26:36;;;;;;;5.53;3.90;;;;;;;15.06;60.71;95231.06;5006514;28;20041;-79
2022/09/13 02:29:06;;;;;;;5.15;3.58;;;;;;;15.04;60.81;95227.78;5008103;28;20026;-79
2022/09/13 02:32:01;;;;;;;4.85;3.70;;;;;;;15.03;60.66;95236.91;5006273;28;20049;-79
2022/09/13 02:34:40;;;;;;;5.93;3.72;;;;;;;14.99;60.75;95232.97;5008466;28;20029;-79
2022/09/13 02:37:07;;;;;;;6.97;3.55;;;;;;;14.91;61.01;95234.84;5023848;28;20031;-79
2022/09/13 02:39:32;;;;;;;8.57;4.00;;;;;;;14.85;61.02;95238.38;5022994;28;20029;-79
2022/09/13 02:42:06;;;;;;;5.10;3.70;;;;;;;14.89;61.14;95231.53;5025320;28;20030;-79
2022/09/13 02:44:36;;;;;;;5.78;4.20;;;;;;;14.89;61.02;95228.84;5010474;28;20451;-79
2022/09/13 02:47:14;;;;;;;7.80;4.60;;;;;;;14.90;61.23;95235.03;5012253;28;20030;-78
2022/09/13 02:50:02;;;;;;;5.82;4.50;;;;;;;14.88;61.51;95229.84;5028131;28;20418;-78
2022/09/13 02:52:48;;;;;;;7.95;5.13;;;;;;;14.83;61.37;95233.19;5028170;28;20451;-79
2022/09/13 02:55:33;;;;;;;5.63;4.15;;;;;;;14.81;61.66;95234.44;5028079;28;20110;-79
2022/09/13 02:58:03;;;;;;;5.35;4.30;;;;;;;14.79;61.89;95239.19;5028034;28;20520;-79
2022/09/13 03:00:29;;;;;;;5.32;4.20;;;;;;;14.78;62.08;95238.34;5010912;28;20029;-81
2022/09/13 03:02:55;;;;;;;6.05;4.15;;;;;;;14.68;62.43;95246.03;5026826;28;20044;-79
2022/09/13 03:05:21;;;;;;;7.40;4.65;;;;;;;14.74;62.23;95244.38;5010485;28;20033;-78
2022/09/13 03:07:47;;;;;;;5.80;4.15;;;;;;;14.76;61.83;95243.13;5028696;28;20404;-78
2022/09/13 03:10:13;;;;;;;8.65;4.47;;;;;;;14.73;61.79;95240.03;5025942;28;20022;-79
2022/09/13 03:13:07;;;;;;;7.47;4.45;;;;;;;14.71;61.62;95238.38;5010898;28;20049;-79
2022/09/13 03:15:42;;;;;;;6.78;4.00;;;;;;;14.66;62.19;95237.31;5026427;28;20103;-79
2022/09/13 03:18:16;;;;;;;11.13;4.13;;;;;;;14.64;61.91;95229.44;5026492;28;20045;-79
2022/09/13 03:21:06;;;;;;;6.15;4.10;;;;;;;14.66;61.71;95237.31;5028084;28;20485;-79
2022/09/13 03:23:49;;;;;;;6.45;4.40;;;;;;;14.63;61.50;95235.03;5009756;28;20029;-78
2022/09/13 03:26:33;;;;;;;5.60;4.03;;;;;;;14.58;61.62;95231.09;5029004;28;20029;-79
2022/09/13 03:29:22;;;;;;;5.00;4.22;;;;;;;14.58;61.64;95231.09;5026196;28;20029;-78
2022/09/13 03:31:56;;;;;;;8.77;4.65;;;;;;;14.54;61.77;95235.22;5011244;28;20025;-79
2022/09/13 03:34:30;;;;;;;5.72;4.43;;;;;;;14.44;62.06;95230.25;5028211;28;20137;-79
2022/09/13 03:37:23;;;;;;;4.68;3.75;;;;;;;14.49;61.86;95236.91;5025446;28;20120;-78
2022/09/13 03:39:56;;;;;;;5.43;4.40;;;;;;;14.43;61.58;95239.38;5023711;28;20515;-80
2022/09/13 03:42:24;;;;;;;4.53;3.80;;;;;;;14.47;62.02;95231.72;5010559;28;20622;-79
2022/09/13 03:44:49;;;;;;;5.18;3.67;;;;;;;14.46;62.01;95240.84;5025116;28;20028;-79
2022/09/13 03:47:15;;;;;;;4.78;3.72;;;;;;;14.46;62.33;95230.88;5010675;28;20026;-79
2022/09/13 03:49:40;;;;;;;10.15;4.18;;;;;;;14.52;62.27;95231.09;5009317;28;20017;-80
2022/09/13 03:52:06;;;;;;;4.43;3.60;;;;;;;14.54;62.43;95229.03;5010310;28;20483;-79
2022/09/13 03:54:31;;;;;;;4.88;3.67;;;;;;;14.52;62.65;95236.50;4993006;28;20033;-79
2022/09/13 03:57:11;;;;;;;7.47;4.38;;;;;;;14.54;61.99;95240.63;5009849;28;20021;-78
2022/09/13 03:59:38;;;;;;;7.53;4.93;;;;;;;14.52;61.97;95241.88;5027857;28;20026;-79
2022/09/13 04:02:10;;;;;;;11.05;5.50;;;;;;;14.56;61.28;95240.41;5024927;28;20031;-79
2022/09/13 04:04:39;;;;;;;6.45;4.45;;;;;;;14.50;61.06;95247.50;5010603;28;20021;-81
2022/09/13 04:07:04;;;;;;;5.50;4.20;;;;;;;14.52;61.29;95252.69;5024634;28;20041;-80
2022/09/13 04:09:30;;;;;;;6.72;4.78;;;;;;;14.42;61.78;95253.06;5026519;28;20100;-79
2022/09/13 04:11:56;;;;;;;9.18;4.55;;;;;;;14.37;62.49;95250.16;5024772;28;20045;-80
2022/09/13 04:14:25;;;;;;;7.57;4.50;;;;;;;14.29;62.44;95248.50;5009254;28;20072;-79
2022/09/13 04:16:51;;;;;;;5.65;4.28;;;;;;;14.28;62.22;95253.03;4993786;28;20038;-79
2022/09/13 04:19:16;;;;;;;6.28;4.35;;;;;;;14.33;62.34;95249.75;5024498;28;20524;-79
2022/09/13 04:21:42;;;;;;;6.00;4.38;;;;;;;14.25;62.81;95249.94;5027066;28;20085;-80
2022/09/13 04:24:07;;;;;;;7.32;4.85;;;;;;;14.32;62.63;95258.88;5024015;28;20033;-80
2022/09/13 04:26:34;;;;;;;6.72;4.18;;;;;;;14.31;62.62;95247.28;5025987;28;20489;-80
2022/09/13 04:28:59;;;;;;;6.15;4.15;;;;;;;14.30;62.13;95258.28;5025597;28;20496;-79
2022/09/13 04:31:25;;;;;;;5.60;4.10;;;;;;;14.25;62.18;95258.03;5025707;28;20036;-79
2022/09/13 04:33:50;;;;;;;6.15;4.38;;;;;;;14.22;62.70;95264.66;5008209;28;20328;-79
2022/09/13 04:36:16;;;;;;;6.10;4.63;;;;;;;14.28;62.38;95271.13;5026043;28;20033;-79
2022/09/13 04:38:41;;;;;;;7.30;4.90;;;;;;;14.20;62.16;95267.56;5008938;28;20026;-79
2022/09/13 04:41:09;;;;;;;5.38;4.07;;;;;;;14.30;62.04;95266.34;5023964;28;20053;-79
2022/09/13 04:43:35;;;;;;;8.38;4.90;;;;;;;14.37;61.75;95266.34;5026638;28;20030;-80
2022/09/13 04:46:00;;;;;;;8.35;4.57;;;;;;;14.47;61.32;95272.19;5007443;28;20500;-79
2022/09/13 04:48:26;;;;;;;6.53;4.22;;;;;;;14.45;61.53;95268.84;5026804;28;20577;-80
2022/09/13 04:50:52;;;;;;;8.85;4.90;;;;;;;14.45;61.73;95280.50;5025407;28;20079;-80
2022/09/13 04:53:17;;;;;;;10.32;4.43;;;;;;;14.51;61.22;95273.41;5025995;28;20053;-80
2022/09/13 04:55:43;;;;;;;7.93;4.88;;;;;;;14.65;60.96;95274.28;5025692;28;20071;-79
2022/09/13 04:58:08;;;;;;;6.68;4.50;;;;;;;14.79;60.38;95279.69;5025755;28;20455;-79
2022/09/13 05:00:34;;;;;;;7.07;4.85;;;;;;;14.92;60.06;95274.31;5025165;28;20404;-78
2022/09/13 05:02:59;;;;;;;7.65;4.50;;;;;;;15.05;59.56;95283.44;5023737;28;20029;-78
2022/09/13 05:05:27;;;;;;;6.63;4.13;;;;;;;15.03;59.67;95290.91;5025965;28;20040;-79
2022/09/13 05:07:53;;;;;;;7.10;5.88;;;;;;;15.11;59.82;95274.50;5023837;28;20087;-79
2022/09/13 05:10:18;;;;;;;6.30;3.80;;;;;;;15.12;60.13;95276.16;5024918;28;20022;-79
2022/09/13 05:12:44;;;;;;;8.70;4.07;;;;;;;15.32;59.51;95280.69;5025253;28;20455;-79
2022/09/13 05:15:11;;;;;;;7.10;4.43;;;;;;;15.50;59.36;95279.22;5025721;28;20048;-80
2022/09/13 05:17:37;;;;;;;7.60;3.80;;;;;;;15.65;59.30;95279.78;5024388;28;20511;-77
2022/09/13 05:20:04;;;;;;;7.40;4.30;;;;;;;15.78;59.28;95286.22;5023811;28;20025;-80
2022/09/13 05:22:29;;;;;;;5.45;3.70;;;;;;;15.95;59.05;95283.84;5024552;28;20034;-79
2022/09/13 05:24:55;;;;;;;6.78;3.63;;;;;;;16.13;58.81;95287.75;5024773;28;20025;-79
2022/09/13 05:27:21;;;;;;;8.02;3.40;;;;;;;16.24;58.52;95283.53;5026137;28;20029;-79
2022/09/13 05:29:46;;;;;;;5.45;3.85;;;;;;;16.26;58.23;95287.69;5007232;28;20025;-79
2022/09/13 05:32:12;;;;;;;4.63;3.30;;;;;;;16.13;58.21;95285.88;5025806;28;20025;-81
2022/09/13 05:34:37;;;;;;;4.55;3.53;;;;;;;16.04;59.14;95293.41;5023768;28;20029;-80
2022/09/13 05:37:03;;;;;;;5.07;3.70;;;;;;;16.03;59.10;95297.16;5025266;28;20105;-79
2022/09/13 05:39:28;;;;;;;7.22;3.97;;;;;;;16.10;59.02;95291.72;5024477;28;20469;-80
2022/09/13 05:41:54;;;;;;;5.85;3.22;;;;;;;16.22;58.57;95285.63;5006530;28;20037;-79
2022/09/13 05:44:19;;;;;;;4.70;2.95;;;;;;;16.33;58.41;95286.81;5025824;28;20026;-80
2022/09/13 05:46:48;;;;;;;4.28;3.22;;;;;;;16.40;58.33;95290.31;5024465;28;20033;-78
2022/09/13 05:49:13;;;;;;;4.68;3.35;;;;;;;16.34;58.59;95280.34;5026331;28;20175;-80
2022/09/13 05:51:38;;;;;;;5.75;3.42;;;;;;;16.24;58.83;95283.53;5024869;28;20132;-80
2022/09/13 05:54:04;;;;;;;5.53;3.17;;;;;;;16.22;58.46;95283.72;5023906;28;20033;-79
2022/09/13 05:56:30;;;;;;;5.47;2.90;;;;;;;16.41;58.10;95283.84;5023445;28;20040;-80
2022/09/13 05:58:56;;;;;;;4.63;3.08;;;;;;;16.51;57.55;95289.59;5023236;28;20025;-79
2022/09/13 06:01:26;;;;;;;5.05;3.40;;;;;;;16.58;57.86;95291.44;5007707;28;20033;-78
2022/09/13 06:03:53;;;;;;;5.30;2.70;;;;;;;16.65;57.24;95284.94;5007120;28;20036;-79
2022/09/13 06:06:18;;;;;;;5.35;2.97;;;;;;;16.71;57.77;95283.22;5025805;28;20072;-78
2022/09/13 06:08:44;;;;;;;5.70;2.95;;;;;;;16.57;57.75;95298.75;5006464;28;20030;-78
2022/09/13 06:11:10;;;;;;;5.50;3.00;;;;;;;16.37;58.87;95294.28;5024004;28;20037;-79
2022/09/13 06:13:36;;;;;;;7.97;2.97;;;;;;;16.36;59.05;95297.22;5007024;28;20028;-77
2022/09/13 06:16:03;;;;;;;4.03;3.03;;;;;;;16.06;59.58;95294.03;5023363;28;20108;-79
2022/09/13 06:18:29;;;;;;;4.18;3.08;;;;;;;16.09;59.73;95298.16;5027757;28;20050;-80
2022/09/13 06:21:05;;;;;;;8.25;3.42;;;;;;;16.38;58.96;95303.25;5026805;28;20435;-79
2022/09/13 06:23:30;;;;;;;4.47;3.15;;;;;;;16.48;58.49;95300.03;5012518;28;20025;-79
2022/09/13 06:26:09;;;;;;;3.80;3.00;;;;;;;16.67;58.23;95296.38;5010285;28;20451;-79
2022/09/13 06:28:35;;;;;;;4.57;3.22;;;;;;;16.97;57.90;95288.66;5028882;28;20043;-79
2022/09/13 06:31:08;;;;;;;4.10;2.70;;;;;;;17.12;56.94;95286.47;5027435;28;20485;-79
2022/09/13 06:33:36;;;;;;;4.07;2.72;;;;;;;17.06;57.08;95292.75;5010869;28;20052;-80
2022/09/13 06:36:06;;;;;;;5.00;3.00;;;;;;;16.91;58.08;95296.63;5011735;28;20055;-79
2022/09/13 06:38:31;;;;;;;4.40;2.67;;;;;;;16.92;57.70;95298.28;5026414;28;20068;-80
2022/09/13 06:41:04;;;;;;;5.07;3.13;;;;;;;16.99;57.40;95300.13;5011091;28;20061;-79
2022/09/13 06:43:29;;;;;;;5.30;2.85;;;;;;;17.14;55.86;95297.09;5026579;28;20060;-79
2022/09/13 06:46:01;;;;;;;9.68;3.58;;;;;;;16.85;57.25;95302.06;5028396;28;20033;-79
2022/09/13 06:48:26;;;;;;;5.45;3.20;;;;;;;16.61;57.53;95305.38;5027087;28;20425;-80
2022/09/13 06:50:52;;;;;;;7.38;3.20;;;;;;;16.99;56.65;95303.63;5009960;28;20481;-79
2022/09/13 06:53:17;;;;;;;5.90;2.83;;;;;;;16.90;57.21;95307.66;5028766;28;20029;-80
2022/09/13 06:55:43;;;;;;;7.32;3.30;;;;;;;16.74;57.21;95300.91;5025859;28;20029;-80
2022/09/13 06:58:08;;;;;;;5.72;2.95;;;;;;;16.76;56.84;95296.13;5027418;28;20079;-80
2022/09/13 07:00:33;;;;;;;7.90;3.10;;;;;;;16.88;57.20;95307.88;5027284;28;20045;-78
2022/09/13 07:02:59;;;;;;;7.85;3.03;;;;;;;16.89;57.17;95306.03;5026982;28;20026;-79
2022/09/13 07:05:24;;;;;;;5.15;3.10;;;;;;;16.99;56.62;95313.66;5026470;28;20028;-80
2022/09/13 07:07:50;;;;;;;7.10;2.90;;;;;;;17.01;55.86;95314.25;5027321;28;20128;-79
2022/09/13 07:10:15;;;;;;;5.30;2.95;;;;;;;17.12;55.41;95310.84;5026743;28;20155;-79
2022/09/13 07:12:41;;;;;;;8.43;2.88;;;;;;;17.13;55.27;95319.81;5025748;28;20179;-79
2022/09/13 07:15:07;;;;;;;4.32;3.10;;;;;;;17.10;55.00;95312.13;5028198;28;20033;-79
2022/09/13 07:17:32;;;;;;;5.22;3.20;;;;;;;17.00;56.05;95320.72;5025618;28;20030;-80
2022/09/13 07:19:58;;;;;;;5.15;2.60;;;;;;;17.00;54.77;95308.03;5025402;28;20045;-79
2022/09/13 07:22:26;;;;;;;4.70;3.08;;;;;;;17.28;54.13;95319.50;5008153;28;20033;-79
2022/09/13 07:24:52;;;;;;;4.47;2.58;;;;;;;17.23;53.96;95322.88;5026586;28;20075;-79
2022/09/13 07:27:18;;;;;;;4.82;2.60;;;;;;;17.54;53.35;95312.13;5024980;28;20021;-80
2022/09/13 07:29:43;;;;;;;4.53;2.50;;;;;;;17.49;54.12;95322.84;5025981;28;20037;-79
2022/09/13 07:32:08;;;;;;;3.58;2.50;;;;;;;17.69;53.23;95317.19;5026422;28;20033;-79
2022/09/13 07:34:34;;;;;;;4.53;2.60;;;;;;;17.92;52.20;95316.56;5024197;28;20083;-79
2022/09/13 07:37:00;;;;;;;4.60;2.80;;;;;;;17.82;52.55;95318.94;5026552;28;20029;-79
2022/09/13 07:39:25;;;;;;;4.38;2.50;;;;;;;17.62;52.42;95313.75;5024342;28;20132;-80
2022/09/13 07:41:52;;;;;;;4.75;2.92;;;;;;;17.59;52.16;95317.72;5025189;28;20030;-80
2022/09/13 07:44:17;;;;;;;6.78;2.70;;;;;;;17.51;52.92;95313.41;5008594;28;20021;-79
2022/09/13 07:46:43;;;;;;;3.15;2.33;;;;;;;17.51;52.38;95323.44;5026409;28;20025;-80
2022/09/13 07:49:10;;;;;;;4.97;2.35;;;;;;;17.80;50.92;95321.03;4992069;28;20063;-80
2022/09/13 07:51:37;;;;;;;4.22;2.67;;;;;;;17.83;50.97;95319.78;5007925;28;20357;-79
2022/09/13 07:54:03;;;;;;;5.82;2.83;;;;;;;17.91;51.47;95314.06;5026287;28;20037;-80
2022/09/13 07:56:39;;;;;;;3.55;2.40;;;;;;;17.89;51.31;95319.69;5007580;28;20412;-79
2022/09/13 07:59:06;;;;;;;5.03;2.40;;;;;;;17.88;50.62;95318.03;5025224;28;20029;-80
2022/09/13 08:01:41;;;;;;;3.05;2.05;;;;;;;17.99;49.71;95318.34;5007742;28;20033;-80
2022/09/13 08:04:11;;;;;;;3.67;2.13;;;;;;;18.19;48.81;95317.28;5025397;28;20110;-80
2022/09/13 08:06:37;;;;;;;3.53;2.30;;;;;;;18.36;48.92;95318.31;5024723;28;20547;-80
2022/09/13 08:09:03;;;;;;;4.35;2.50;;;;;;;18.54;48.87;95313.91;5007298;28;20026;-80
2022/09/13 08:11:33;;;;;;;3.28;2.15;;;;;;;18.38;47.74;95316.22;5025142;28;20034;-79
2022/09/13 08:13:59;;;;;;;3.33;2.00;;;;;;;18.47;46.96;95321.31;5023418;28;20421;-81
2022/09/13 08:16:25;;;;;;;3.17;2.00;;;;;;;18.43;47.94;95322.84;5008382;28;20113;-79
2022/09/13 08:18:53;;;;;;;3.17;2.33;;;;;;;18.39;47.83;95323.28;4976934;28;1367172;-79
2022/09/13 08:21:18;;;;;;;3.25;2.20;;;;;;;18.09;46.90;95321.34;5008583;28;20107;-80
2022/09/13 08:23:43;;;;;;;4.00;2.50;;;;;;;17.99;47.75;95321.88;5025368;28;20029;-79
2022/09/13 08:26:09;;;;;;;4.93;2.20;;;;;;;18.27;47.32;95316.97;5025948;28;20025;-80
2022/09/13 08:28:35;;;;;;;11.27;2.85;;;;;;;18.31;48.67;95315.47;5025824;28;20022;-80
2022/09/13 08:31:12;;;;;;;8.10;2.00;;;;;;;18.16;46.80;95303.13;5008292;28;20095;-80
2022/09/13 08:33:38;;;;;;;3.08;1.85;;;;;;;18.12;46.43;95311.97;5009532;28;20029;-78
2022/09/13 08:36:04;;;;;;;2.95;1.88;;;;;;;18.19;46.76;95301.84;5024486;28;20041;-79
2022/09/13 08:38:29;;;;;;;3.25;1.98;;;;;;;18.49;46.53;95317.31;4992008;28;20036;-80
2022/09/13 08:41:32;;;;;;;7.00;2.15;;;;;;;18.69;45.74;95304.50;5024370;28;20087;-82
2022/09/13 08:44:14;;;;;;;3.97;2.33;;;;;;;18.97;45.72;95297.59;5025529;28;20108;-79
2022/09/13 08:46:46;;;;;;;2.72;1.92;;;;;;;19.00;43.35;95297.97;5010118;28;20041;-79
2022/09/13 08:49:26;;;;;;;4.83;1.87;;;;;;;18.99;44.28;95296.31;5007861;28;20057;-79
2022/09/13 08:51:53;;;;;;;4.30;1.83;;;;;;;18.67;44.70;95293.06;5009773;28;20374;-79
2022/09/13 08:54:19;;;;;;;2.60;1.90;;;;;;;18.68;43.25;95297.41;5008646;28;20037;-79
2022/09/13 08:56:58;;;;;;;2.22;1.45;;;;;;;18.64;43.88;95297.88;5007558;28;20133;-79
2022/09/13 08:59:51;;;;;;;2.88;1.80;;;;;;;18.73;44.82;95297.56;5009713;28;20077;-79
2022/09/13 09:02:16;;;;;;;3.45;1.70;;;;;;;18.89;43.71;95302.31;5025577;28;20025;-80
2022/09/13 09:05:01;;;;;;;4.82;1.80;;;;;;;18.93;43.76;95305.38;5026136;28;20036;-79
2022/09/13 09:07:28;;;;;;;3.80;2.10;;;;;;;18.75;44.26;95314.44;5024502;28;20029;-80
2022/09/13 09:09:56;;;;;;;4.03;2.00;;;;;;;18.74;44.11;95312.78;5023778;28;20481;-80
2022/09/13 09:12:27;;;;;;;4.22;2.10;;;;;;;18.77;43.21;95304.16;5026026;28;20017;-80
2022/09/13 09:15:01;;;;;;;5.22;1.92;;;;;;;18.73;44.23;95297.56;5023780;28;20121;-80
2022/09/13 09:17:42;;;;;;;2.30;1.80;;;;;;;18.54;44.40;95308.47;5025561;28;20026;-79
2022/09/13 09:20:24;;;;;;;3.67;2.42;;;;;;;18.66;43.55;95305.81;5024902;28;20156;-80
2022/09/13 09:22:50;;;;;;;3.05;1.80;;;;;;;18.89;43.33;95299.59;5008282;28;20420;-80
2022/09/13 09:25:16;;;;;;;3.25;2.30;;;;;;;18.87;43.06;95300.91;5026859;28;20057;-79
2022/09/13 09:27:41;;;;;;;6.60;1.83;;;;;;;18.99;42.78;95293.59;5007199;28;20480;-80
2022/09/13 09:30:12;;;;;;;3.45;2.40;;;;;;;19.13;43.12;95294.25;5024867;28;20075;-80
2022/09/13 09:32:46;;;;;;;4.13;2.25;;;;;;;19.08;44.30;95285.09;5007645;28;20117;-80
2022/09/13 09:35:51;;;;;;;2.35;1.80;;;;;;;19.28;43.14;95284.81;5024942;28;20119;-80
2022/09/13 09:38:38;;;;;;;5.20;2.17;;;;;;;19.43;42.39;95278.88;5024730;28;20029;-79
2022/09/13 09:41:12;;;;;;;3.13;2.05;;;;;;;19.25;43.34;95279.81;5008810;28;20029;-80
2022/09/13 09:43:44;;;;;;;5.97;1.80;;;;;;;19.34;43.50;95277.56;5024766;28;20526;-81
2022/09/13 09:46:11;;;;;;;3.42;2.03;;;;;;;19.36;41.95;95276.25;5008908;28;20045;-80
2022/09/13 09:48:43;;;;;;;3.38;2.33;;;;;;;19.32;42.73;95274.25;5006855;28;20041;-80
2022/09/13 09:51:10;;;;;;;2.67;2.08;;;;;;;19.34;42.31;95269.41;5008931;28;20094;-79
2022/09/13 09:53:40;;;;;;;7.50;2.38;;;;;;;19.36;42.88;95259.94;5023032;28;20053;-80
2022/09/13 09:56:23;;;;;;;4.20;2.45;;;;;;;19.49;42.18;95266.22;5008861;28;20068;-80
2022/09/13 09:58:48;;;;;;;3.10;2.47;;;;;;;19.64;42.37;95254.84;5023900;28;20112;-82
2022/09/13 10:01:37;;;;;;;3.60;2.30;;;;;;;19.52;41.76;95250.25;5007182;28;20108;-79
2022/09/13 10:04:11;;;;;;;2.78;1.92;;;;;;;19.55;41.98;95250.84;5025173;28;20150;-78
2022/09/13 10:06:37;;;;;;;3.47;2.10;;;;;;;19.57;42.17;95244.09;5023484;28;20021;-79
2022/09/13 10:09:04;;;;;;;3.28;2.50;;;;;;;19.74;42.17;95246.06;5008773;28;20026;-79
2022/09/13 10:11:50;;;;;;;2.67;1.88;;;;;;;19.70;39.60;95243.00;5023961;28;20382;-78
2022/09/13 10:14:41;;;;;;;4.50;1.92;;;;;;;19.82;40.08;95240.25;5008596;28;20033;-79
2022/09/13 10:17:25;;;;;;;2.63;1.80;;;;;;;19.75;40.50;95245.84;5024741;28;20056;-79
2022/09/13 10:19:58;;;;;;;7.07;2.47;;;;;;;19.78;41.07;95236.34;5023085;28;20052;-79
2022/09/13 10:22:27;;;;;;;3.70;2.40;;;;;;;19.93;40.93;95240.47;5025124;28;20405;-79
2022/09/13 10:24:53;;;;;;;3.72;2.40;;;;;;;19.70;40.70;95234.03;5008133;28;20105;-80
2022/09/13 10:27:41;;;;;;;3.13;2.13;;;;;;;19.81;40.83;95240.50;5006995;28;20017;-78
2022/09/13 10:30:07;;;;;;;3.20;1.85;;;;;;;19.96;40.81;95229.09;5008302;28;20029;-80
2022/09/13 10:32:32;;;;;;;3.33;1.88;;;;;;;20.01;39.53;95232.75;4990216;28;20029;-79
2022/09/13 10:35:18;;;;;;;2.60;2.15;;;;;;;19.79;39.50;95235.31;5007575;28;20028;-79
2022/09/13 10:37:43;;;;;;;3.38;2.10;;;;;;;19.84;40.00;95229.13;5007321;28;20025;-80
2022/09/13 10:40:25;;;;;;;4.78;2.15;;;;;;;19.73;40.58;95222.66;5006817;28;20087;-79
2022/09/13 10:42:56;;;;;;;2.88;2.22;;;;;;;19.70;41.11;95221.22;5008511;28;20032;-81
2022/09/13 10:45:23;;;;;;;3.10;2.17;;;;;;;19.62;40.26;95216.16;5006417;28;20033;-78
2022/09/13 10:47:49;;;;;;;3.50;2.47;;;;;;;19.69;40.42;95219.59;5007186;28;20030;-80
2022/09/13 10:50:19;;;;;;;3.13;2.30;;;;;;;19.64;39.81;95220.31;5006295;28;20037;-79
2022/09/13 10:52:47;;;;;;;4.05;2.05;;;;;;;19.95;39.55;95219.28;5006508;28;20033;-80
2022/09/13 10:55:18;;;;;;;2.75;1.60;;;;;;;20.25;38.85;95205.47;5023414;28;20033;-79
2022/09/13 10:57:45;;;;;;;3.20;1.80;;;;;;;20.23;37.72;95209.50;5024046;28;20064;-80
2022/09/13 11:00:11;;;;;;;3.50;1.85;;;;;;;20.22;38.05;95216.00;5006811;28;20038;-79
2022/09/13 11:03:02;;;;;;;2.45;1.73;;;;;;;20.26;37.49;95207.09;5006384;28;20030;-79
2022/09/13 11:05:42;;;;;;;4.10;2.05;;;;;;;20.52;37.58;95205.91;5028203;28;20528;-79
2022/09/13 11:08:33;;;;;;;4.60;1.67;;;;;;;20.45;37.91;95206.06;5027834;28;20037;-80
2022/09/13 11:11:11;;;;;;;3.08;1.98;;;;;;;20.52;37.37;95209.47;5025846;28;20052;-79
2022/09/13 11:14:10;;;;;;;3.20;1.73;;;;;;;20.82;38.15;95194.69;5028183;28;20072;-80
2022/09/13 11:16:53;;;;;;;4.18;1.60;;;;;;;20.80;37.07;95194.13;5027779;28;20026;-79
2022/09/13 11:19:56;;;;;;;2.67;1.90;;;;;;;20.56;37.59;95194.28;5026746;28;20053;-79
2022/09/13 11:23:03;;;;;;;6.45;1.70;;;;;;;20.52;37.52;95193.13;5013329;28;20045;-79
2022/09/13 11:25:50;;;;;;;2.72;1.83;;;;;;;20.77;37.64;95194.63;5026501;28;20030;-79
2022/09/13 11:28:48;;;;;;;2.33;1.75;;;;;;;20.96;36.68;95188.94;5025500;28;20470;-80
2022/09/13 11:31:23;;;;;;;3.35;1.80;;;;;;;21.19;37.31;95189.81;5009002;28;20558;-80
2022/09/13 11:34:00;;;;;;;3.83;1.90;;;;;;;21.16;36.21;95176.69;5025876;28;20029;-79
2022/09/13 11:36:32;;;;;;;3.58;1.50;;;;;;;21.18;34.99;95186.28;5025486;28;20681;-79
2022/09/13 11:39:14;;;;;;;6.30;2.15;;;;;;;21.10;35.61;95187.50;5027695;28;20022;-80
2022/09/13 11:41:43;;;;;;;;;;;;;;;21.12;35.49;95190.81;5025881;28;20040;-81
2022/09/13 11:44:17;;;;;;;4.88;1.65;;;;;;;21.31;35.71;95171.44;5028548;28;20362;-80
2022/09/13 11:47:07;;;;;;;4.15;1.90;;;;;;;20.95;35.93;95190.84;5027174;28;20075;-80
2022/09/13 11:50:05;;;;;;;2.38;1.73;;;;;;;20.69;36.81;95175.94;5025258;28;20022;-80
2022/09/13 11:52:30;;;;;;;2.88;1.67;;;;;;;20.95;36.71;95181.84;5026814;28;20067;-79
2022/09/13 11:55:10;;;;;;;4.55;1.90;;;;;;;21.05;36.47;95190.19;5025006;28;20419;-79